sensor_id;sensor_type;location;lat;lon;timestamp;P1;durP1;ratioP1;P2;durP2;ratioP2
8102;SDS011;4094;49.948;11.574;2023-06-04T00:00:30;5.63;;;5.20;;
8102;SDS011;4094;49.948;11.574;2023-06-04T00:02:59;5.60;;;5.20;;
8102;SDS011;4094;49.948;11.574;2023-06-04T00:05:30;5.30;;;4.90;;
8102;SDS011;4094;49.948;11.574;2023-06-04T00:07:58;4.87;;;4.57;;
8102;SDS011;4094;49.948;11.574;2023-06-04T00:10:27;5.23;;;4.90;;
8102;SDS011;4094;49.948;11.574;2023-06-04T00:12:57;5.67;;;5.17;;
8102;SDS011;4094;49.948;11.574;2023-06-04T00:15:26;4.90;;;4.60;;
8102;SDS011;4094;49.948;11.574;2023-06-04T00:17:55;5.07;;;4.73;;
8102;SDS011;4094;49.948;11.574;2023-06-04T00:20:24;5.37;;;4.97;;
8102;SDS011;4094;49.948;11.574;2023-06-04T00:22:54;5.57;;;5.17;;
8102;SDS011;4094;49.948;11.574;2023-06-04T00:25:23;5.60;;;5.13;;
8102;SDS011;4094;49.948;11.574;2023-06-04T00:27:53;5.67;;;5.30;;
8102;SDS011;4094;49.948;11.574;2023-06-04T00:30:22;5.30;;;4.90;;
8102;SDS011;4094;49.948;11.574;2023-06-04T00:32:51;5.97;;;5.47;;
8102;SDS011;4094;49.948;11.574;2023-06-04T00:35:20;6.13;;;5.63;;
8102;SDS011;4094;49.948;11.574;2023-06-04T00:37:49;5.40;;;5.00;;
8102;SDS011;4094;49.948;11.574;2023-06-04T00:40:19;5.97;;;5.47;;
8102;SDS011;4094;49.948;11.574;2023-06-04T00:42:48;5.73;;;5.23;;
8102;SDS011;4094;49.948;11.574;2023-06-04T00:45:18;5.67;;;5.30;;
8102;SDS011;4094;49.948;11.574;2023-06-04T00:47:47;6.03;;;5.43;;
8102;SDS011;4094;49.948;11.574;2023-06-04T00:50:16;5.97;;;5.57;;
8102;SDS011;4094;49.948;11.574;2023-06-04T00:52:48;5.83;;;5.53;;
8102;SDS011;4094;49.948;11.574;2023-06-04T00:55:20;6.30;;;5.73;;
8102;SDS011;4094;49.948;11.574;2023-06-04T00:57:49;5.70;;;5.30;;
8102;SDS011;4094;49.948;11.574;2023-06-04T01:00:18;6.47;;;5.87;;
8102;SDS011;4094;49.948;11.574;2023-06-04T01:02:48;6.97;;;6.37;;
8102;SDS011;4094;49.948;11.574;2023-06-04T01:05:21;6.13;;;5.63;;
8102;SDS011;4094;49.948;11.574;2023-06-04T01:08:00;6.53;;;5.90;;
8102;SDS011;4094;49.948;11.574;2023-06-04T01:10:31;5.97;;;5.60;;
8102;SDS011;4094;49.948;11.574;2023-06-04T01:13:00;6.03;;;5.53;;
8102;SDS011;4094;49.948;11.574;2023-06-04T01:15:29;6.00;;;5.50;;
8102;SDS011;4094;49.948;11.574;2023-06-04T01:17:58;5.80;;;5.50;;
8102;SDS011;4094;49.948;11.574;2023-06-04T01:20:33;5.97;;;5.57;;
8102;SDS011;4094;49.948;11.574;2023-06-04T01:23:14;6.13;;;5.63;;
8102;SDS011;4094;49.948;11.574;2023-06-04T01:25:52;6.00;;;5.70;;
8102;SDS011;4094;49.948;11.574;2023-06-04T01:28:24;6.20;;;5.80;;
8102;SDS011;4094;49.948;11.574;2023-06-04T01:30:54;6.57;;;6.10;;
8102;SDS011;4094;49.948;11.574;2023-06-04T01:33:23;6.43;;;6.03;;
8102;SDS011;4094;49.948;11.574;2023-06-04T01:35:53;6.30;;;5.90;;
8102;SDS011;4094;49.948;11.574;2023-06-04T01:38:23;6.57;;;6.17;;
8102;SDS011;4094;49.948;11.574;2023-06-04T01:40:53;6.70;;;6.20;;
8102;SDS011;4094;49.948;11.574;2023-06-04T01:43:28;6.00;;;5.60;;
8102;SDS011;4094;49.948;11.574;2023-06-04T01:45:57;6.17;;;5.60;;
8102;SDS011;4094;49.948;11.574;2023-06-04T01:48:26;6.70;;;6.10;;
8102;SDS011;4094;49.948;11.574;2023-06-04T01:50:55;5.70;;;5.40;;
8102;SDS011;4094;49.948;11.574;2023-06-04T01:53:24;6.97;;;6.40;;
8102;SDS011;4094;49.948;11.574;2023-06-04T01:55:55;6.23;;;5.83;;
8102;SDS011;4094;49.948;11.574;2023-06-04T01:58:24;6.23;;;5.83;;
8102;SDS011;4094;49.948;11.574;2023-06-04T02:00:54;6.37;;;6.07;;
8102;SDS011;4094;49.948;11.574;2023-06-04T02:03:27;6.00;;;5.70;;
8102;SDS011;4094;49.948;11.574;2023-06-04T02:05:59;6.13;;;5.63;;
8102;SDS011;4094;49.948;11.574;2023-06-04T02:08:28;6.87;;;6.37;;
8102;SDS011;4094;49.948;11.574;2023-06-04T02:10:59;6.40;;;6.00;;
8102;SDS011;4094;49.948;11.574;2023-06-04T02:13:28;6.67;;;6.20;;
8102;SDS011;4094;49.948;11.574;2023-06-04T02:15:57;6.90;;;6.30;;
8102;SDS011;4094;49.948;11.574;2023-06-04T02:18:26;6.50;;;6.10;;
8102;SDS011;4094;49.948;11.574;2023-06-04T02:20:56;6.70;;;6.20;;
8102;SDS011;4094;49.948;11.574;2023-06-04T02:23:26;6.80;;;6.40;;
8102;SDS011;4094;49.948;11.574;2023-06-04T02:25:55;7.20;;;6.50;;
8102;SDS011;4094;49.948;11.574;2023-06-04T02:28:25;5.83;;;5.33;;
8102;SDS011;4094;49.948;11.574;2023-06-04T02:30:55;6.67;;;6.27;;
8102;SDS011;4094;49.948;11.574;2023-06-04T02:33:24;7.10;;;6.60;;
8102;SDS011;4094;49.948;11.574;2023-06-04T02:35:53;6.20;;;5.90;;
8102;SDS011;4094;49.948;11.574;2023-06-04T02:38:23;6.60;;;6.20;;
8102;SDS011;4094;49.948;11.574;2023-06-04T02:40:51;6.80;;;6.40;;
8102;SDS011;4094;49.948;11.574;2023-06-04T02:43:20;6.97;;;6.47;;
8102;SDS011;4094;49.948;11.574;2023-06-04T02:45:51;6.80;;;6.40;;
8102;SDS011;4094;49.948;11.574;2023-06-04T02:48:20;7.13;;;6.70;;
8102;SDS011;4094;49.948;11.574;2023-06-04T02:50:49;7.00;;;6.60;;
8102;SDS011;4094;49.948;11.574;2023-06-04T02:53:18;7.07;;;6.57;;
8102;SDS011;4094;49.948;11.574;2023-06-04T02:55:48;6.63;;;6.23;;
8102;SDS011;4094;49.948;11.574;2023-06-04T02:58:18;6.93;;;6.43;;
8102;SDS011;4094;49.948;11.574;2023-06-04T03:00:52;7.20;;;6.80;;
8102;SDS011;4094;49.948;11.574;2023-06-04T03:03:22;6.90;;;6.50;;
8102;SDS011;4094;49.948;11.574;2023-06-04T03:05:51;7.60;;;7.00;;
8102;SDS011;4094;49.948;11.574;2023-06-04T03:08:21;6.87;;;6.47;;
8102;SDS011;4094;49.948;11.574;2023-06-04T03:10:50;7.10;;;6.70;;
8102;SDS011;4094;49.948;11.574;2023-06-04T03:13:19;6.90;;;6.40;;
8102;SDS011;4094;49.948;11.574;2023-06-04T03:15:48;6.67;;;6.37;;
8102;SDS011;4094;49.948;11.574;2023-06-04T03:18:20;7.17;;;6.77;;
8102;SDS011;4094;49.948;11.574;2023-06-04T03:20:50;7.43;;;6.93;;
8102;SDS011;4094;49.948;11.574;2023-06-04T03:23:20;7.40;;;6.80;;
8102;SDS011;4094;49.948;11.574;2023-06-04T03:25:50;7.33;;;6.63;;
8102;SDS011;4094;49.948;11.574;2023-06-04T03:28:19;6.93;;;6.53;;
8102;SDS011;4094;49.948;11.574;2023-06-04T03:30:48;7.83;;;7.20;;
8102;SDS011;4094;49.948;11.574;2023-06-04T03:33:21;7.10;;;6.57;;
8102;SDS011;4094;49.948;11.574;2023-06-04T03:35:50;7.50;;;6.90;;
8102;SDS011;4094;49.948;11.574;2023-06-04T03:38:20;6.80;;;6.30;;
8102;SDS011;4094;49.948;11.574;2023-06-04T03:40:49;7.90;;;7.17;;
8102;SDS011;4094;49.948;11.574;2023-06-04T03:43:20;7.40;;;6.77;;
8102;SDS011;4094;49.948;11.574;2023-06-04T03:45:53;7.23;;;6.80;;
8102;SDS011;4094;49.948;11.574;2023-06-04T03:48:23;7.30;;;6.90;;
8102;SDS011;4094;49.948;11.574;2023-06-04T03:50:53;7.53;;;6.93;;
8102;SDS011;4094;49.948;11.574;2023-06-04T03:53:22;6.83;;;6.53;;
8102;SDS011;4094;49.948;11.574;2023-06-04T03:55:51;7.13;;;6.50;;
8102;SDS011;4094;49.948;11.574;2023-06-04T03:58:21;6.63;;;6.33;;
8102;SDS011;4094;49.948;11.574;2023-06-04T04:00:51;7.37;;;6.97;;
8102;SDS011;4094;49.948;11.574;2023-06-04T04:03:21;7.37;;;6.77;;
8102;SDS011;4094;49.948;11.574;2023-06-04T04:05:52;7.23;;;6.77;;
8102;SDS011;4094;49.948;11.574;2023-06-04T04:08:21;7.33;;;6.83;;
8102;SDS011;4094;49.948;11.574;2023-06-04T04:10:50;6.87;;;6.47;;
8102;SDS011;4094;49.948;11.574;2023-06-04T04:13:19;7.10;;;6.70;;
8102;SDS011;4094;49.948;11.574;2023-06-04T04:15:48;7.80;;;7.13;;
8102;SDS011;4094;49.948;11.574;2023-06-04T04:18:20;6.80;;;6.40;;
8102;SDS011;4094;49.948;11.574;2023-06-04T04:20:50;7.80;;;7.30;;
8102;SDS011;4094;49.948;11.574;2023-06-04T04:23:20;7.50;;;7.10;;
8102;SDS011;4094;49.948;11.574;2023-06-04T04:25:51;7.47;;;6.97;;
8102;SDS011;4094;49.948;11.574;2023-06-04T04:28:21;7.73;;;7.17;;
8102;SDS011;4094;49.948;11.574;2023-06-04T04:30:50;7.00;;;6.60;;
8102;SDS011;4094;49.948;11.574;2023-06-04T04:33:21;7.70;;;7.20;;
8102;SDS011;4094;49.948;11.574;2023-06-04T04:35:51;7.90;;;7.30;;
8102;SDS011;4094;49.948;11.574;2023-06-04T04:38:24;7.77;;;7.27;;
8102;SDS011;4094;49.948;11.574;2023-06-04T04:40:58;7.13;;;6.63;;
8102;SDS011;4094;49.948;11.574;2023-06-04T04:43:28;7.47;;;7.07;;
8102;SDS011;4094;49.948;11.574;2023-06-04T04:46:01;7.67;;;7.17;;
8102;SDS011;4094;49.948;11.574;2023-06-04T04:48:31;7.30;;;6.90;;
8102;SDS011;4094;49.948;11.574;2023-06-04T04:51:00;6.67;;;6.27;;
8102;SDS011;4094;49.948;11.574;2023-06-04T04:53:31;7.77;;;7.03;;
8102;SDS011;4094;49.948;11.574;2023-06-04T04:56:00;7.30;;;6.90;;
8102;SDS011;4094;49.948;11.574;2023-06-04T04:58:33;7.43;;;7.03;;
8102;SDS011;4094;49.948;11.574;2023-06-04T05:01:02;7.60;;;7.20;;
8102;SDS011;4094;49.948;11.574;2023-06-04T05:03:32;7.47;;;6.97;;
8102;SDS011;4094;49.948;11.574;2023-06-04T05:06:02;6.87;;;6.47;;
8102;SDS011;4094;49.948;11.574;2023-06-04T05:08:33;6.90;;;6.50;;
8102;SDS011;4094;49.948;11.574;2023-06-04T05:11:02;6.90;;;6.40;;
8102;SDS011;4094;49.948;11.574;2023-06-04T05:13:32;6.70;;;6.20;;
8102;SDS011;4094;49.948;11.574;2023-06-04T05:16:04;7.53;;;6.83;;
8102;SDS011;4094;49.948;11.574;2023-06-04T05:18:36;7.50;;;7.00;;
8102;SDS011;4094;49.948;11.574;2023-06-04T05:21:10;7.00;;;6.50;;
8102;SDS011;4094;49.948;11.574;2023-06-04T05:23:47;6.47;;;5.97;;
8102;SDS011;4094;49.948;11.574;2023-06-04T05:26:19;6.50;;;5.90;;
8102;SDS011;4094;49.948;11.574;2023-06-04T05:28:51;6.50;;;6.00;;
8102;SDS011;4094;49.948;11.574;2023-06-04T05:31:23;6.33;;;5.93;;
8102;SDS011;4094;49.948;11.574;2023-06-04T05:33:55;6.20;;;5.80;;
8102;SDS011;4094;49.948;11.574;2023-06-04T05:36:26;6.57;;;6.17;;
8102;SDS011;4094;49.948;11.574;2023-06-04T05:39:00;6.10;;;5.70;;
8102;SDS011;4094;49.948;11.574;2023-06-04T05:41:35;6.27;;;5.87;;
8102;SDS011;4094;49.948;11.574;2023-06-04T05:44:05;6.77;;;6.27;;
8102;SDS011;4094;49.948;11.574;2023-06-04T05:46:34;6.43;;;5.83;;
8102;SDS011;4094;49.948;11.574;2023-06-04T05:49:04;5.90;;;5.40;;
8102;SDS011;4094;49.948;11.574;2023-06-04T05:51:33;5.90;;;5.43;;
8102;SDS011;4094;49.948;11.574;2023-06-04T05:54:04;6.17;;;5.77;;
8102;SDS011;4094;49.948;11.574;2023-06-04T05:56:37;6.23;;;5.73;;
8102;SDS011;4094;49.948;11.574;2023-06-04T05:59:06;6.13;;;5.67;;
8102;SDS011;4094;49.948;11.574;2023-06-04T06:01:36;6.37;;;5.87;;
8102;SDS011;4094;49.948;11.574;2023-06-04T06:04:05;6.00;;;5.60;;
8102;SDS011;4094;49.948;11.574;2023-06-04T06:06:35;5.83;;;5.43;;
8102;SDS011;4094;49.948;11.574;2023-06-04T06:09:05;5.67;;;5.33;;
8102;SDS011;4094;49.948;11.574;2023-06-04T06:11:36;5.60;;;5.20;;
8102;SDS011;4094;49.948;11.574;2023-06-04T06:14:05;5.70;;;5.30;;
8102;SDS011;4094;49.948;11.574;2023-06-04T06:16:34;5.50;;;5.10;;
8102;SDS011;4094;49.948;11.574;2023-06-04T06:19:04;5.67;;;5.30;;
8102;SDS011;4094;49.948;11.574;2023-06-04T06:21:33;6.37;;;5.80;;
8102;SDS011;4094;49.948;11.574;2023-06-04T06:24:03;6.27;;;5.07;;
8102;SDS011;4094;49.948;11.574;2023-06-04T06:26:34;5.97;;;5.47;;
8102;SDS011;4094;49.948;11.574;2023-06-04T06:29:05;5.30;;;4.90;;
8102;SDS011;4094;49.948;11.574;2023-06-04T06:31:34;5.67;;;5.13;;
8102;SDS011;4094;49.948;11.574;2023-06-04T06:34:04;5.60;;;5.10;;
8102;SDS011;4094;49.948;11.574;2023-06-04T06:36:32;5.53;;;5.00;;
8102;SDS011;4094;49.948;11.574;2023-06-04T06:39:02;5.17;;;4.87;;
8102;SDS011;4094;49.948;11.574;2023-06-04T06:41:33;5.80;;;5.10;;
8102;SDS011;4094;49.948;11.574;2023-06-04T06:44:03;5.10;;;4.70;;
8102;SDS011;4094;49.948;11.574;2023-06-04T06:46:33;7.07;;;5.63;;
8102;SDS011;4094;49.948;11.574;2023-06-04T06:49:02;5.30;;;4.80;;
8102;SDS011;4094;49.948;11.574;2023-06-04T06:51:31;4.73;;;4.43;;
8102;SDS011;4094;49.948;11.574;2023-06-04T06:54:00;5.33;;;4.93;;
8102;SDS011;4094;49.948;11.574;2023-06-04T06:56:30;4.93;;;4.63;;
8102;SDS011;4094;49.948;11.574;2023-06-04T06:59:00;4.50;;;4.20;;
8102;SDS011;4094;49.948;11.574;2023-06-04T07:01:29;4.53;;;4.23;;
8102;SDS011;4094;49.948;11.574;2023-06-04T07:04:00;4.93;;;4.60;;
8102;SDS011;4094;49.948;11.574;2023-06-04T07:06:29;5.00;;;4.53;;
8102;SDS011;4094;49.948;11.574;2023-06-04T07:08:58;5.63;;;5.20;;
8102;SDS011;4094;49.948;11.574;2023-06-04T07:11:27;4.87;;;4.10;;
8102;SDS011;4094;49.948;11.574;2023-06-04T07:13:56;4.90;;;4.50;;
8102;SDS011;4094;49.948;11.574;2023-06-04T07:16:27;4.40;;;4.10;;
8102;SDS011;4094;49.948;11.574;2023-06-04T07:18:56;6.33;;;5.83;;
8102;SDS011;4094;49.948;11.574;2023-06-04T07:21:25;5.47;;;4.90;;
8102;SDS011;4094;49.948;11.574;2023-06-04T07:23:54;4.13;;;3.83;;
8102;SDS011;4094;49.948;11.574;2023-06-04T07:26:23;4.57;;;4.27;;
8102;SDS011;4094;49.948;11.574;2023-06-04T07:28:53;4.80;;;4.37;;
8102;SDS011;4094;49.948;11.574;2023-06-04T07:31:23;4.23;;;3.93;;
8102;SDS011;4094;49.948;11.574;2023-06-04T07:33:53;4.23;;;3.93;;
8102;SDS011;4094;49.948;11.574;2023-06-04T07:36:22;4.20;;;3.80;;
8102;SDS011;4094;49.948;11.574;2023-06-04T07:38:51;3.93;;;3.73;;
8102;SDS011;4094;49.948;11.574;2023-06-04T07:41:21;4.07;;;3.77;;
8102;SDS011;4094;49.948;11.574;2023-06-04T07:43:50;3.97;;;3.67;;
8102;SDS011;4094;49.948;11.574;2023-06-04T07:46:19;3.80;;;3.50;;
8102;SDS011;4094;49.948;11.574;2023-06-04T07:48:48;4.87;;;3.57;;
8102;SDS011;4094;49.948;11.574;2023-06-04T07:51:19;4.07;;;3.77;;
8102;SDS011;4094;49.948;11.574;2023-06-04T07:53:47;5.13;;;3.50;;
8102;SDS011;4094;49.948;11.574;2023-06-04T07:56:17;4.40;;;3.43;;
8102;SDS011;4094;49.948;11.574;2023-06-04T07:58:46;4.33;;;3.40;;
8102;SDS011;4094;49.948;11.574;2023-06-04T08:01:15;3.93;;;3.57;;
8102;SDS011;4094;49.948;11.574;2023-06-04T08:03:44;3.63;;;3.33;;
8102;SDS011;4094;49.948;11.574;2023-06-04T08:06:13;3.73;;;3.33;;
8102;SDS011;4094;49.948;11.574;2023-06-04T08:08:44;3.93;;;3.50;;
8102;SDS011;4094;49.948;11.574;2023-06-04T08:11:15;3.53;;;3.33;;
8102;SDS011;4094;49.948;11.574;2023-06-04T08:13:45;4.93;;;3.60;;
8102;SDS011;4094;49.948;11.574;2023-06-04T08:16:14;3.60;;;3.30;;
8102;SDS011;4094;49.948;11.574;2023-06-04T08:19:03;3.37;;;2.80;;
8102;SDS011;4094;49.948;11.574;2023-06-04T08:21:42;3.60;;;3.30;;
8102;SDS011;4094;49.948;11.574;2023-06-04T08:24:29;3.20;;;3.00;;
8102;SDS011;4094;49.948;11.574;2023-06-04T08:27:12;3.73;;;2.90;;
8102;SDS011;4094;49.948;11.574;2023-06-04T08:29:53;3.23;;;3.03;;
8102;SDS011;4094;49.948;11.574;2023-06-04T08:32:42;3.00;;;2.80;;
8102;SDS011;4094;49.948;11.574;2023-06-04T08:35:18;3.00;;;2.60;;
8102;SDS011;4094;49.948;11.574;2023-06-04T08:37:47;3.07;;;2.77;;
8102;SDS011;4094;49.948;11.574;2023-06-04T08:40:17;4.97;;;3.07;;
8102;SDS011;4094;49.948;11.574;2023-06-04T08:42:46;2.90;;;2.70;;
8102;SDS011;4094;49.948;11.574;2023-06-04T08:45:17;3.13;;;2.93;;
8102;SDS011;4094;49.948;11.574;2023-06-04T08:47:49;3.70;;;2.90;;
8102;SDS011;4094;49.948;11.574;2023-06-04T08:50:19;3.10;;;2.80;;
8102;SDS011;4094;49.948;11.574;2023-06-04T08:52:51;3.07;;;2.77;;
8102;SDS011;4094;49.948;11.574;2023-06-04T08:55:23;2.80;;;2.60;;
8102;SDS011;4094;49.948;11.574;2023-06-04T08:57:53;3.20;;;3.00;;
8102;SDS011;4094;49.948;11.574;2023-06-04T09:00:22;3.10;;;2.80;;
8102;SDS011;4094;49.948;11.574;2023-06-04T09:02:51;2.70;;;2.50;;
8102;SDS011;4094;49.948;11.574;2023-06-04T09:05:21;2.87;;;2.67;;
8102;SDS011;4094;49.948;11.574;2023-06-04T09:07:52;3.80;;;3.00;;
8102;SDS011;4094;49.948;11.574;2023-06-04T09:10:24;2.97;;;2.77;;
8102;SDS011;4094;49.948;11.574;2023-06-04T09:12:54;3.23;;;2.80;;
8102;SDS011;4094;49.948;11.574;2023-06-04T09:15:28;3.07;;;2.77;;
8102;SDS011;4094;49.948;11.574;2023-06-04T09:17:57;3.10;;;2.90;;
8102;SDS011;4094;49.948;11.574;2023-06-04T09:20:26;3.67;;;3.00;;
8102;SDS011;4094;49.948;11.574;2023-06-04T09:22:57;3.97;;;2.90;;
8102;SDS011;4094;49.948;11.574;2023-06-04T09:25:28;2.97;;;2.70;;
8102;SDS011;4094;49.948;11.574;2023-06-04T09:28:05;5.93;;;2.60;;
8102;SDS011;4094;49.948;11.574;2023-06-04T09:30:34;3.03;;;2.33;;
8102;SDS011;4094;49.948;11.574;2023-06-04T09:33:07;2.80;;;2.60;;
8102;SDS011;4094;49.948;11.574;2023-06-04T09:35:37;3.27;;;2.80;;
8102;SDS011;4094;49.948;11.574;2023-06-04T09:38:06;3.00;;;2.80;;
8102;SDS011;4094;49.948;11.574;2023-06-04T09:40:37;3.10;;;2.80;;
8102;SDS011;4094;49.948;11.574;2023-06-04T09:43:06;2.93;;;2.70;;
8102;SDS011;4094;49.948;11.574;2023-06-04T09:45:36;3.07;;;2.77;;
8102;SDS011;4094;49.948;11.574;2023-06-04T09:48:05;3.40;;;2.97;;
8102;SDS011;4094;49.948;11.574;2023-06-04T09:50:36;3.80;;;3.10;;
8102;SDS011;4094;49.948;11.574;2023-06-04T09:53:13;4.33;;;2.80;;
8102;SDS011;4094;49.948;11.574;2023-06-04T09:55:44;2.60;;;2.40;;
8102;SDS011;4094;49.948;11.574;2023-06-04T09:58:24;3.17;;;2.73;;
8102;SDS011;4094;49.948;11.574;2023-06-04T10:00:56;11.40;;;2.93;;
8102;SDS011;4094;49.948;11.574;2023-06-04T10:03:29;2.93;;;2.73;;
8102;SDS011;4094;49.948;11.574;2023-06-04T10:06:01;4.07;;;2.90;;
8102;SDS011;4094;49.948;11.574;2023-06-04T10:08:32;2.80;;;2.60;;
8102;SDS011;4094;49.948;11.574;2023-06-04T10:11:03;2.70;;;2.50;;
8102;SDS011;4094;49.948;11.574;2023-06-04T10:13:37;3.13;;;2.93;;
8102;SDS011;4094;49.948;11.574;2023-06-04T10:16:16;2.90;;;2.70;;
8102;SDS011;4094;49.948;11.574;2023-06-04T10:19:01;3.30;;;3.00;;
8102;SDS011;4094;49.948;11.574;2023-06-04T10:21:30;3.27;;;2.97;;
8102;SDS011;4094;49.948;11.574;2023-06-04T10:24:03;3.00;;;2.70;;
8102;SDS011;4094;49.948;11.574;2023-06-04T10:26:34;3.03;;;2.70;;
8102;SDS011;4094;49.948;11.574;2023-06-04T10:29:05;3.40;;;3.00;;
8102;SDS011;4094;49.948;11.574;2023-06-04T10:31:34;2.87;;;2.67;;
8102;SDS011;4094;49.948;11.574;2023-06-04T10:34:05;2.87;;;2.57;;
8102;SDS011;4094;49.948;11.574;2023-06-04T10:36:42;3.20;;;2.50;;
8102;SDS011;4094;49.948;11.574;2023-06-04T10:39:11;2.90;;;2.70;;
8102;SDS011;4094;49.948;11.574;2023-06-04T10:41:42;2.67;;;2.47;;
8102;SDS011;4094;49.948;11.574;2023-06-04T10:44:12;2.97;;;2.70;;
8102;SDS011;4094;49.948;11.574;2023-06-04T10:46:42;3.87;;;2.80;;
8102;SDS011;4094;49.948;11.574;2023-06-04T10:49:11;3.03;;;2.73;;
8102;SDS011;4094;49.948;11.574;2023-06-04T10:51:42;2.70;;;2.50;;
8102;SDS011;4094;49.948;11.574;2023-06-04T10:54:21;2.60;;;2.40;;
8102;SDS011;4094;49.948;11.574;2023-06-04T10:56:53;2.70;;;2.50;;
8102;SDS011;4094;49.948;11.574;2023-06-04T10:59:22;3.07;;;2.50;;
8102;SDS011;4094;49.948;11.574;2023-06-04T11:02:02;4.40;;;2.60;;
8102;SDS011;4094;49.948;11.574;2023-06-04T11:04:33;2.67;;;2.47;;
8102;SDS011;4094;49.948;11.574;2023-06-04T11:07:04;2.60;;;2.40;;
8102;SDS011;4094;49.948;11.574;2023-06-04T11:09:36;3.97;;;2.93;;
8102;SDS011;4094;49.948;11.574;2023-06-04T11:12:07;2.70;;;2.50;;
8102;SDS011;4094;49.948;11.574;2023-06-04T11:14:36;3.37;;;2.43;;
8102;SDS011;4094;49.948;11.574;2023-06-04T11:17:09;2.57;;;2.33;;
8102;SDS011;4094;49.948;11.574;2023-06-04T11:19:39;2.73;;;2.53;;
8102;SDS011;4094;49.948;11.574;2023-06-04T11:22:10;2.97;;;2.77;;
8102;SDS011;4094;49.948;11.574;2023-06-04T11:24:40;2.90;;;2.70;;
8102;SDS011;4094;49.948;11.574;2023-06-04T11:27:11;4.80;;;2.13;;
8102;SDS011;4094;49.948;11.574;2023-06-04T11:29:54;3.63;;;2.60;;
8102;SDS011;4094;49.948;11.574;2023-06-04T11:32:23;2.50;;;2.30;;
8102;SDS011;4094;49.948;11.574;2023-06-04T11:35:01;2.70;;;2.50;;
8102;SDS011;4094;49.948;11.574;2023-06-04T11:37:32;3.57;;;2.30;;
8102;SDS011;4094;49.948;11.574;2023-06-04T11:40:02;4.83;;;2.60;;
8102;SDS011;4094;49.948;11.574;2023-06-04T11:42:44;2.50;;;2.30;;
8102;SDS011;4094;49.948;11.574;2023-06-04T11:45:15;2.30;;;2.10;;
8102;SDS011;4094;49.948;11.574;2023-06-04T11:47:46;2.60;;;2.40;;
8102;SDS011;4094;49.948;11.574;2023-06-04T11:50:19;3.60;;;2.40;;
8102;SDS011;4094;49.948;11.574;2023-06-04T11:52:48;4.00;;;2.30;;
8102;SDS011;4094;49.948;11.574;2023-06-04T11:55:17;4.33;;;2.50;;
8102;SDS011;4094;49.948;11.574;2023-06-04T11:57:49;3.03;;;2.20;;
8102;SDS011;4094;49.948;11.574;2023-06-04T12:00:19;4.30;;;2.20;;
8102;SDS011;4094;49.948;11.574;2023-06-04T12:02:50;2.80;;;2.50;;
8102;SDS011;4094;49.948;11.574;2023-06-04T12:05:21;2.37;;;2.20;;
8102;SDS011;4094;49.948;11.574;2023-06-04T12:07:52;2.43;;;2.23;;
8102;SDS011;4094;49.948;11.574;2023-06-04T12:10:36;2.33;;;1.90;;
8102;SDS011;4094;49.948;11.574;2023-06-04T12:13:10;3.43;;;2.43;;
8102;SDS011;4094;49.948;11.574;2023-06-04T12:15:39;3.07;;;2.20;;
8102;SDS011;4094;49.948;11.574;2023-06-04T12:18:09;2.60;;;2.17;;
8102;SDS011;4094;49.948;11.574;2023-06-04T12:20:39;2.30;;;2.10;;
8102;SDS011;4094;49.948;11.574;2023-06-04T12:23:18;3.10;;;2.00;;
8102;SDS011;4094;49.948;11.574;2023-06-04T12:25:49;2.20;;;2.00;;
8102;SDS011;4094;49.948;11.574;2023-06-04T12:28:20;2.53;;;2.13;;
8102;SDS011;4094;49.948;11.574;2023-06-04T12:30:49;2.00;;;1.80;;
8102;SDS011;4094;49.948;11.574;2023-06-04T12:33:19;3.13;;;1.97;;
8102;SDS011;4094;49.948;11.574;2023-06-04T12:35:48;2.40;;;2.20;;
8102;SDS011;4094;49.948;11.574;2023-06-04T12:38:17;3.00;;;2.07;;
8102;SDS011;4094;49.948;11.574;2023-06-04T12:40:46;2.30;;;2.10;;
8102;SDS011;4094;49.948;11.574;2023-06-04T12:43:15;3.50;;;2.03;;
8102;SDS011;4094;49.948;11.574;2023-06-04T12:45:46;2.40;;;1.83;;
8102;SDS011;4094;49.948;11.574;2023-06-04T12:48:14;2.10;;;1.90;;
8102;SDS011;4094;49.948;11.574;2023-06-04T12:50:44;1.93;;;1.80;;
8102;SDS011;4094;49.948;11.574;2023-06-04T12:53:13;4.00;;;1.90;;
8102;SDS011;4094;49.948;11.574;2023-06-04T12:55:42;2.60;;;1.90;;
8102;SDS011;4094;49.948;11.574;2023-06-04T12:58:11;3.83;;;2.03;;
8102;SDS011;4094;49.948;11.574;2023-06-04T13:00:40;2.20;;;1.97;;
8102;SDS011;4094;49.948;11.574;2023-06-04T13:03:10;3.60;;;1.87;;
8102;SDS011;4094;49.948;11.574;2023-06-04T13:05:44;2.87;;;2.10;;
8102;SDS011;4094;49.948;11.574;2023-06-04T13:08:16;2.20;;;2.00;;
8102;SDS011;4094;49.948;11.574;2023-06-04T13:10:46;2.00;;;1.80;;
8102;SDS011;4094;49.948;11.574;2023-06-04T13:13:15;2.40;;;2.20;;
8102;SDS011;4094;49.948;11.574;2023-06-04T13:15:44;1.80;;;1.70;;
8102;SDS011;4094;49.948;11.574;2023-06-04T13:18:14;2.03;;;1.83;;
8102;SDS011;4094;49.948;11.574;2023-06-04T13:20:43;2.20;;;1.90;;
8102;SDS011;4094;49.948;11.574;2023-06-04T13:23:12;2.20;;;1.93;;
8102;SDS011;4094;49.948;11.574;2023-06-04T13:25:42;2.73;;;1.73;;
8102;SDS011;4094;49.948;11.574;2023-06-04T13:28:11;2.63;;;1.83;;
8102;SDS011;4094;49.948;11.574;2023-06-04T13:30:40;3.73;;;1.70;;
8102;SDS011;4094;49.948;11.574;2023-06-04T13:33:09;2.47;;;2.20;;
8102;SDS011;4094;49.948;11.574;2023-06-04T13:35:40;3.80;;;1.90;;
8102;SDS011;4094;49.948;11.574;2023-06-04T13:38:11;2.60;;;1.93;;
8102;SDS011;4094;49.948;11.574;2023-06-04T13:40:41;1.80;;;1.60;;
8102;SDS011;4094;49.948;11.574;2023-06-04T13:43:12;3.27;;;1.97;;
8102;SDS011;4094;49.948;11.574;2023-06-04T13:45:41;2.20;;;1.97;;
8102;SDS011;4094;49.948;11.574;2023-06-04T13:48:12;2.93;;;1.77;;
8102;SDS011;4094;49.948;11.574;2023-06-04T13:50:43;5.00;;;1.93;;
8102;SDS011;4094;49.948;11.574;2023-06-04T13:53:12;2.73;;;2.00;;
8102;SDS011;4094;49.948;11.574;2023-06-04T13:55:41;4.13;;;1.90;;
8102;SDS011;4094;49.948;11.574;2023-06-04T13:58:10;2.43;;;1.90;;
8102;SDS011;4094;49.948;11.574;2023-06-04T14:00:42;2.17;;;1.70;;
8102;SDS011;4094;49.948;11.574;2023-06-04T14:03:11;2.07;;;1.80;;
8102;SDS011;4094;49.948;11.574;2023-06-04T14:05:40;3.33;;;1.90;;
8102;SDS011;4094;49.948;11.574;2023-06-04T14:08:11;2.00;;;1.80;;
8102;SDS011;4094;49.948;11.574;2023-06-04T14:10:40;4.03;;;2.23;;
8102;SDS011;4094;49.948;11.574;2023-06-04T14:13:10;2.67;;;1.70;;
8102;SDS011;4094;49.948;11.574;2023-06-04T14:15:39;2.40;;;1.80;;
8102;SDS011;4094;49.948;11.574;2023-06-04T14:18:08;2.63;;;1.90;;
8102;SDS011;4094;49.948;11.574;2023-06-04T14:20:37;2.07;;;1.80;;
8102;SDS011;4094;49.948;11.574;2023-06-04T14:23:11;3.20;;;1.80;;
8102;SDS011;4094;49.948;11.574;2023-06-04T14:25:40;2.77;;;1.90;;
8102;SDS011;4094;49.948;11.574;2023-06-04T14:28:09;1.80;;;1.60;;
8102;SDS011;4094;49.948;11.574;2023-06-04T14:30:38;3.47;;;1.90;;
8102;SDS011;4094;49.948;11.574;2023-06-04T14:33:07;4.40;;;1.90;;
8102;SDS011;4094;49.948;11.574;2023-06-04T14:35:37;3.00;;;2.07;;
8102;SDS011;4094;49.948;11.574;2023-06-04T14:38:13;2.83;;;1.83;;
8102;SDS011;4094;49.948;11.574;2023-06-04T14:40:45;1.77;;;1.67;;
8102;SDS011;4094;49.948;11.574;2023-06-04T14:43:18;2.53;;;1.93;;
8102;SDS011;4094;49.948;11.574;2023-06-04T14:45:47;2.23;;;2.00;;
8102;SDS011;4094;49.948;11.574;2023-06-04T14:48:16;2.07;;;1.87;;
8102;SDS011;4094;49.948;11.574;2023-06-04T14:50:46;1.70;;;1.60;;
8102;SDS011;4094;49.948;11.574;2023-06-04T14:53:16;2.40;;;1.70;;
8102;SDS011;4094;49.948;11.574;2023-06-04T14:55:45;4.30;;;1.73;;
8102;SDS011;4094;49.948;11.574;2023-06-04T14:58:15;6.10;;;1.80;;
8102;SDS011;4094;49.948;11.574;2023-06-04T15:00:44;2.60;;;2.00;;
8102;SDS011;4094;49.948;11.574;2023-06-04T15:03:15;3.87;;;2.63;;
8102;SDS011;4094;49.948;11.574;2023-06-04T15:05:47;6.57;;;1.90;;
8102;SDS011;4094;49.948;11.574;2023-06-04T15:08:19;1.77;;;1.63;;
8102;SDS011;4094;49.948;11.574;2023-06-04T15:10:48;2.80;;;1.63;;
8102;SDS011;4094;49.948;11.574;2023-06-04T15:13:18;2.07;;;1.87;;
8102;SDS011;4094;49.948;11.574;2023-06-04T15:15:47;4.23;;;1.90;;
8102;SDS011;4094;49.948;11.574;2023-06-04T15:18:16;2.00;;;1.80;;
8102;SDS011;4094;49.948;11.574;2023-06-04T15:20:46;2.13;;;1.70;;